createdAt,value
2019-02-08T00:01:35.197Z,7.43
2019-02-08T00:04:04.045Z,7.57
2019-02-08T00:06:32.880Z,6.87
2019-02-08T00:09:01.754Z,6.00
2019-02-08T00:11:30.562Z,6.63
2019-02-08T00:13:59.406Z,6.27
2019-02-08T00:16:28.567Z,7.20
2019-02-08T00:18:57.419Z,7.30
2019-02-08T00:21:26.230Z,7.53
2019-02-08T00:26:22.926Z,7.97
2019-02-08T00:28:51.763Z,7.67
2019-02-08T00:31:20.589Z,8.07
2019-02-08T00:33:50.480Z,8.30
2019-02-08T00:36:19.299Z,10.10
2019-02-08T00:38:48.130Z,7.63
2019-02-08T00:41:16.968Z,7.13
2019-02-08T00:43:45.811Z,7.10
2019-02-08T00:46:14.642Z,7.30
2019-02-08T00:48:44.086Z,7.50
2019-02-08T00:51:13.007Z,7.83
2019-02-08T00:53:42.337Z,7.53
2019-02-08T00:56:11.207Z,7.30
2019-02-08T00:58:40.058Z,6.30
2019-02-08T01:01:09.051Z,6.20
2019-02-08T01:03:38.020Z,5.63
2019-02-08T01:06:07.037Z,6.13
2019-02-08T01:08:35.858Z,6.10
2019-02-08T01:11:04.956Z,6.43
2019-02-08T01:13:33.826Z,5.87
2019-02-08T01:16:02.648Z,6.40
2019-02-08T01:18:31.544Z,5.97
2019-02-08T01:21:00.488Z,6.43
2019-02-08T01:23:29.512Z,6.53
2019-02-08T01:25:58.486Z,6.60
2019-02-08T01:28:28.669Z,8.78
2019-02-08T01:30:57.556Z,6.80
2019-02-08T01:33:27.882Z,6.37
2019-02-08T01:35:56.819Z,6.60
2019-02-08T01:38:25.977Z,6.03
2019-02-08T01:40:54.889Z,6.20
2019-02-08T01:43:23.745Z,6.63
2019-02-08T01:45:52.680Z,6.70
2019-02-08T01:48:21.784Z,6.80
2019-02-08T01:50:50.793Z,6.77
2019-02-08T01:53:19.641Z,6.77
2019-02-08T01:55:48.629Z,6.20
2019-02-08T01:58:17.478Z,6.90
2019-02-08T02:00:46.294Z,6.50
2019-02-08T02:03:18.575Z,6.23
2019-02-08T02:05:47.632Z,6.37
2019-02-08T02:08:16.469Z,6.57
2019-02-08T02:10:46.529Z,6.47
2019-02-08T02:13:15.347Z,6.10
2019-02-08T02:15:44.187Z,6.70
2019-02-08T02:18:13.770Z,6.50
2019-02-08T02:20:43.991Z,7.10
2019-02-08T02:23:15.218Z,8.50
2019-02-08T02:25:44.105Z,6.83
2019-02-08T02:28:12.966Z,6.93
2019-02-08T02:30:41.929Z,6.77
2019-02-08T02:33:12.694Z,6.73
2019-02-08T02:35:43.132Z,6.47
2019-02-08T02:38:12.008Z,6.73
2019-02-08T02:40:40.941Z,6.17
2019-02-08T02:43:09.847Z,7.10
2019-02-08T02:45:40.352Z,6.93
2019-02-08T02:48:10.921Z,7.73
2019-02-08T02:50:40.060Z,7.43
2019-02-08T02:53:09.036Z,8.90
2019-02-08T02:55:37.908Z,8.53
2019-02-08T02:58:06.964Z,8.27
2019-02-08T03:00:44.357Z,7.80
2019-02-08T03:03:14.778Z,8.60
2019-02-08T03:05:43.769Z,7.20
2019-02-08T03:08:14.857Z,7.17
2019-02-08T03:10:43.690Z,6.70
2019-02-08T03:13:13.120Z,8.73
2019-02-08T03:15:42.091Z,9.98
2019-02-08T03:18:10.945Z,9.80
2019-02-08T03:20:39.762Z,8.87
2019-02-08T03:23:08.652Z,8.90
2019-02-08T03:25:39.105Z,9.37
2019-02-08T03:28:07.936Z,7.23
2019-02-08T03:30:38.535Z,7.67
2019-02-08T03:33:07.413Z,7.30
2019-02-08T03:35:36.243Z,8.47
2019-02-08T03:38:05.294Z,6.90
2019-02-08T03:40:34.222Z,6.23
2019-02-08T03:43:03.063Z,7.60
2019-02-08T03:45:33.500Z,9.30
2019-02-08T03:48:02.392Z,8.63
2019-02-08T03:50:31.338Z,7.60
2019-02-08T03:53:00.228Z,10.27
2019-02-08T03:55:29.067Z,8.40
2019-02-08T03:57:57.905Z,6.93
2019-02-08T04:00:34.261Z,8.00
2019-02-08T04:03:03.095Z,9.30
2019-02-08T04:05:32.039Z,8.57
2019-02-08T04:08:00.987Z,6.70
2019-02-08T04:10:29.833Z,7.57
2019-02-08T04:12:58.672Z,10.80
2019-02-08T04:15:27.554Z,8.27
2019-02-08T04:17:56.649Z,7.70
2019-02-08T04:20:26.672Z,7.80
2019-02-08T04:22:57.499Z,7.03
2019-02-08T04:25:26.928Z,8.03
2019-02-08T04:27:55.862Z,7.57
2019-02-08T04:30:27.349Z,7.07
2019-02-08T04:32:57.179Z,8.27
2019-02-08T04:35:28.394Z,8.07
2019-02-08T04:37:57.383Z,7.20
2019-02-08T04:40:28.151Z,8.03
2019-02-08T04:42:57.197Z,8.30
2019-02-08T04:45:26.163Z,7.23
2019-02-08T04:47:56.122Z,7.83
2019-02-08T04:50:26.542Z,7.33
2019-02-08T04:52:55.855Z,6.00
2019-02-08T04:55:25.609Z,6.17
2019-02-08T04:57:54.480Z,5.77
2019-02-08T05:00:28.754Z,7.87
2019-02-08T05:02:57.676Z,6.90
2019-02-08T05:05:26.588Z,6.87
2019-02-08T05:07:56.077Z,7.00
2019-02-08T05:10:34.020Z,8.73
2019-02-08T05:13:02.942Z,7.73
2019-02-08T05:15:31.973Z,8.17
2019-02-08T05:18:09.801Z,7.77
2019-02-08T05:20:38.672Z,8.23
2019-02-08T05:23:07.544Z,7.87
2019-02-08T05:25:36.419Z,8.47
2019-02-08T05:28:05.969Z,7.17
2019-02-08T05:30:36.914Z,6.17
2019-02-08T05:33:10.090Z,6.53
2019-02-08T05:35:39.269Z,7.03
2019-02-08T05:38:08.276Z,8.33
2019-02-08T05:40:37.187Z,8.13
2019-02-08T05:43:09.244Z,8.07
2019-02-08T05:45:39.070Z,7.20
2019-02-08T05:48:08.381Z,6.97
2019-02-08T05:50:41.217Z,6.90
2019-02-08T05:53:10.234Z,7.40
2019-02-08T05:55:42.238Z,7.73
2019-02-08T05:58:11.802Z,8.98
2019-02-08T06:00:49.400Z,8.10
2019-02-08T06:03:19.733Z,8.03
2019-02-08T06:06:00.060Z,8.33
2019-02-08T06:08:29.146Z,7.67
2019-02-08T06:10:58.024Z,7.37
2019-02-08T06:13:32.609Z,8.50
2019-02-08T06:16:01.444Z,9.77
2019-02-08T06:18:32.538Z,9.93
2019-02-08T06:21:01.434Z,9.57
2019-02-08T06:23:30.402Z,10.40
2019-02-08T06:26:11.210Z,10.03
2019-02-08T06:28:45.381Z,10.10
2019-02-08T06:31:14.262Z,11.70
2019-02-08T06:33:43.220Z,11.07
2019-02-08T06:36:12.022Z,9.10
2019-02-08T06:38:40.879Z,12.10
2019-02-08T06:41:16.997Z,7.53
2019-02-08T06:43:45.891Z,8.87
2019-02-08T06:46:20.418Z,9.97
2019-02-08T06:48:50.823Z,8.53
2019-02-08T06:51:19.766Z,11.07
2019-02-08T06:53:48.676Z,8.77
2019-02-08T06:56:38.516Z,7.30
2019-02-08T06:59:16.250Z,7.40
2019-02-08T07:01:57.560Z,7.03
2019-02-08T07:07:32.053Z,6.97
2019-02-08T07:10:22.988Z,8.63
2019-02-08T07:12:59.294Z,8.30
2019-02-08T07:15:29.749Z,8.07
2019-02-08T07:18:10.177Z,9.43
2019-02-08T07:20:57.122Z,6.83
2019-02-08T07:23:32.246Z,6.87
2019-02-08T07:26:07.759Z,8.67
2019-02-08T07:31:24.633Z,9.80
2019-02-08T07:33:58.275Z,8.37
2019-02-08T07:36:29.136Z,7.37
2019-02-08T07:38:59.866Z,7.87
2019-02-08T07:41:36.740Z,9.83
2019-02-08T07:44:26.074Z,8.87
2019-02-08T07:47:08.873Z,8.57
2019-02-08T07:49:47.042Z,8.87
2019-02-08T07:52:34.015Z,9.77
2019-02-08T07:58:23.416Z,6.57
2019-02-08T08:01:08.937Z,6.70
2019-02-08T08:03:39.370Z,6.83
2019-02-08T08:06:15.479Z,8.03
2019-02-08T08:09:00.453Z,7.50
2019-02-08T08:11:44.297Z,9.27
2019-02-08T08:14:31.630Z,9.60
2019-02-08T08:17:07.583Z,7.40
2019-02-08T08:19:44.307Z,6.40
2019-02-08T08:22:27.512Z,7.93
2019-02-08T08:25:20.946Z,7.20
2019-02-08T08:27:57.266Z,7.43
2019-02-08T08:30:32.142Z,7.83
2019-02-08T08:33:07.859Z,7.83
2019-02-08T08:36:12.865Z,6.80
2019-02-08T08:39:14.729Z,5.77
2019-02-08T08:42:04.325Z,6.20
2019-02-08T08:44:52.588Z,6.20
2019-02-08T08:47:39.197Z,6.00
2019-02-08T08:50:32.976Z,7.13
2019-02-08T08:53:38.239Z,8.33
2019-02-08T08:56:19.323Z,8.93
2019-02-08T08:59:06.340Z,7.57
2019-02-08T09:01:44.083Z,8.60
2019-02-08T09:04:21.927Z,7.73
2019-02-08T09:06:56.680Z,8.67
2019-02-08T09:09:49.346Z,9.83
2019-02-08T09:12:38.911Z,10.37
2019-02-08T09:15:22.848Z,8.33
2019-02-08T09:17:54.675Z,8.27
2019-02-08T09:20:39.067Z,9.63
2019-02-08T09:23:33.369Z,7.80
2019-02-08T09:26:23.218Z,9.83
2019-02-08T09:29:13.122Z,9.67
2019-02-08T09:32:00.103Z,10.97
2019-02-08T09:34:43.624Z,11.97
2019-02-08T09:37:54.863Z,12.50
2019-02-08T09:41:06.495Z,12.70
2019-02-08T09:43:54.696Z,13.17
2019-02-08T09:46:54.792Z,13.57
2019-02-08T09:49:50.189Z,14.57
2019-02-08T09:52:41.293Z,18.40
2019-02-08T09:55:46.111Z,14.80
2019-02-08T09:58:47.890Z,14.77
2019-02-08T10:01:41.780Z,12.57
2019-02-08T10:04:36.377Z,14.23
2019-02-08T10:07:38.404Z,11.47
2019-02-08T10:10:28.083Z,11.37
2019-02-08T10:13:25.772Z,12.40
2019-02-08T10:16:11.057Z,12.50
2019-02-08T10:18:57.740Z,13.40
2019-02-08T10:21:36.702Z,14.60
2019-02-08T10:24:44.641Z,12.53
2019-02-08T10:27:45.026Z,10.77
2019-02-08T10:30:34.403Z,11.47
2019-02-08T10:33:16.480Z,10.60
2019-02-08T10:36:13.960Z,11.53
2019-02-08T10:39:22.090Z,14.13
2019-02-08T10:42:11.996Z,12.17
2019-02-08T10:44:52.509Z,11.87
2019-02-08T10:47:33.087Z,13.03
2019-02-08T10:50:26.230Z,16.80
2019-02-08T10:53:17.784Z,14.43
2019-02-08T10:56:14.893Z,13.73
2019-02-08T10:59:03.868Z,11.43
2019-02-08T11:02:01.018Z,11.40
2019-02-08T11:05:06.874Z,14.00
2019-02-08T11:07:47.369Z,12.67
2019-02-08T11:10:34.921Z,13.10
2019-02-08T11:13:13.432Z,14.63
2019-02-08T11:16:03.401Z,13.97
2019-02-08T11:19:03.791Z,14.37
2019-02-08T11:21:33.331Z,13.97
2019-02-08T11:24:04.493Z,13.47
2019-02-08T11:26:33.332Z,11.83
2019-02-08T11:29:03.416Z,12.03
2019-02-08T11:31:33.493Z,12.65
2019-02-08T11:34:02.875Z,10.87
2019-02-08T11:36:31.768Z,11.20
2019-02-08T11:39:00.658Z,11.70
2019-02-08T11:41:29.639Z,11.97
2019-02-08T11:43:58.552Z,10.80
2019-02-08T11:46:27.420Z,13.15
2019-02-08T11:48:56.293Z,10.77
2019-02-08T11:51:25.251Z,11.17
2019-02-08T11:53:54.132Z,10.33
2019-02-08T11:56:30.177Z,11.53
2019-02-08T11:58:59.764Z,12.20
2019-02-08T12:01:30.310Z,14.03
2019-02-08T12:03:59.376Z,13.00
2019-02-08T12:06:28.258Z,12.70
2019-02-08T12:08:57.135Z,12.90
2019-02-08T12:11:25.991Z,11.50
2019-02-08T12:13:54.866Z,11.33
2019-02-08T12:16:23.861Z,11.17
2019-02-08T12:18:52.708Z,11.57
2019-02-08T12:21:21.589Z,11.90
2019-02-08T12:23:50.494Z,12.20
2019-02-08T12:26:22.259Z,12.57
2019-02-08T12:28:51.228Z,13.53
2019-02-08T12:31:20.164Z,13.67
2019-02-08T12:33:49.979Z,12.57
2019-02-08T12:36:21.660Z,12.60
2019-02-08T12:38:50.596Z,12.53
2019-02-08T12:41:21.083Z,13.70
2019-02-08T12:43:50.700Z,13.50
2019-02-08T12:46:20.841Z,13.63
2019-02-08T12:48:52.980Z,11.73
2019-02-08T12:51:21.914Z,13.97
2019-02-08T12:56:45.570Z,12.70
2019-02-08T12:59:14.678Z,11.90
2019-02-08T13:01:43.542Z,14.13
2019-02-08T13:04:13.245Z,14.67
2019-02-08T13:06:42.121Z,14.50
2019-02-08T13:09:11.022Z,14.80
2019-02-08T13:11:39.901Z,14.63
2019-02-08T13:14:08.873Z,12.50
2019-02-08T13:16:37.812Z,13.83
2019-02-08T13:19:06.859Z,12.57
2019-02-08T13:21:39.503Z,13.80
2019-02-08T13:24:08.361Z,11.33
2019-02-08T13:26:37.981Z,12.17
2019-02-08T13:29:06.861Z,12.43
2019-02-08T13:31:35.708Z,14.13
2019-02-08T13:34:05.129Z,14.57
2019-02-08T13:36:37.034Z,15.57
2019-02-08T13:39:07.862Z,14.13
2019-02-08T13:41:36.728Z,14.20
2019-02-08T13:44:05.604Z,13.40
2019-02-08T13:46:34.508Z,13.40
2019-02-08T13:49:03.365Z,15.55
2019-02-08T13:51:32.327Z,14.13
2019-02-08T13:54:01.217Z,12.73
2019-02-08T13:56:30.142Z,12.23
2019-02-08T13:58:59.000Z,12.87
2019-02-08T14:01:27.931Z,14.30
2019-02-08T14:03:56.944Z,12.37
2019-02-08T14:06:25.750Z,13.37
2019-02-08T14:08:54.718Z,13.33
2019-02-08T14:11:23.561Z,13.13
2019-02-08T14:13:52.565Z,13.20
2019-02-08T14:16:29.746Z,14.83
2019-02-08T14:18:58.629Z,13.90
2019-02-08T14:21:29.103Z,15.40
2019-02-08T14:23:58.105Z,16.60
2019-02-08T14:26:26.976Z,14.20
2019-02-08T14:28:56.959Z,14.97
2019-02-08T14:31:39.111Z,13.97
2019-02-08T14:34:01.296Z,14.53
2019-02-08T14:36:37.229Z,13.40
2019-02-08T14:39:10.481Z,14.60
2019-02-08T14:41:42.101Z,14.60
2019-02-08T14:44:28.386Z,14.53
2019-02-08T14:47:00.937Z,19.82
2019-02-08T14:49:29.766Z,17.93
2019-02-08T14:52:00.152Z,14.70
2019-02-08T14:54:29.062Z,14.43
2019-02-08T14:56:57.975Z,13.50
2019-02-08T14:59:26.804Z,13.90
2019-02-08T15:01:55.703Z,14.37
2019-02-08T15:04:24.520Z,15.00
2019-02-08T15:06:56.225Z,15.60
2019-02-08T15:09:25.137Z,16.80
2019-02-08T15:11:53.991Z,16.80
2019-02-08T15:14:22.840Z,12.57
2019-02-08T15:16:51.788Z,13.23
2019-02-08T15:19:20.635Z,14.50
2019-02-08T15:21:49.547Z,13.00
2019-02-08T15:24:18.537Z,12.80
2019-02-08T15:26:47.587Z,14.17
2019-02-08T15:29:19.634Z,14.23
2019-02-08T15:31:51.627Z,13.73
2019-02-08T15:34:26.657Z,14.23
2019-02-08T15:36:55.354Z,15.20
2019-02-08T15:39:30.672Z,15.00
2019-02-08T15:42:00.162Z,16.17
2019-02-08T15:44:29.087Z,21.40
2019-02-08T15:47:02.474Z,15.93
2019-02-08T15:49:41.266Z,16.97
2019-02-08T15:52:10.408Z,16.27
2019-02-08T15:54:40.496Z,16.50
2019-02-08T15:57:11.830Z,14.50
2019-02-08T15:59:44.747Z,16.73
2019-02-08T16:02:13.817Z,14.70
2019-02-08T16:04:44.236Z,12.67
2019-02-08T16:07:15.366Z,13.60
2019-02-08T16:09:44.263Z,14.17
2019-02-08T16:12:13.472Z,14.30
2019-02-08T16:14:44.296Z,16.27
2019-02-08T16:17:15.846Z,14.70
2019-02-08T16:19:45.080Z,12.67
2019-02-08T16:22:14.042Z,13.40
2019-02-08T16:24:43.670Z,14.18
2019-02-08T16:27:17.354Z,15.03
2019-02-08T16:29:52.396Z,13.10
2019-02-08T16:32:21.377Z,14.73
2019-02-08T16:34:51.348Z,12.33
2019-02-08T16:37:23.268Z,13.23
2019-02-08T16:39:52.763Z,13.00
2019-02-08T17:23:06.246Z,15.77
2019-02-08T17:25:38.239Z,14.07
2019-02-08T17:31:06.532Z,13.33
2019-02-08T17:45:40.761Z,13.10
2019-02-08T17:48:30.458Z,12.13
2019-02-08T17:53:41.849Z,13.53
2019-02-08T17:56:13.037Z,13.90
2019-02-08T17:58:44.985Z,14.57
2019-02-08T18:01:15.024Z,13.90
2019-02-08T18:03:44.096Z,14.33
2019-02-08T18:06:20.337Z,14.57
2019-02-08T18:08:49.269Z,14.70
2019-02-08T18:11:24.466Z,15.87
2019-02-08T18:13:55.668Z,15.57
2019-02-08T18:16:33.237Z,15.60
2019-02-08T18:19:02.214Z,14.97
2019-02-08T18:21:31.459Z,17.00
2019-02-08T18:24:10.310Z,17.13
2019-02-08T18:26:54.221Z,16.60
2019-02-08T18:32:18.326Z,16.77
2019-02-08T18:34:53.134Z,16.53
2019-02-08T18:37:22.181Z,16.43
2019-02-08T18:39:51.004Z,16.70
2019-02-08T18:42:21.578Z,22.17
2019-02-08T18:44:51.543Z,18.20
2019-02-08T18:47:29.914Z,19.37
2019-02-08T18:49:58.893Z,19.70
2019-02-08T18:52:36.545Z,17.37
2019-02-08T18:55:05.836Z,18.10
2019-02-08T18:57:36.264Z,18.47
2019-02-08T19:00:14.330Z,16.97
2019-02-08T19:02:43.254Z,16.67
2019-02-08T19:05:15.352Z,14.67
2019-02-08T19:07:47.465Z,15.80
2019-02-08T19:10:22.130Z,17.23
2019-02-08T19:12:51.352Z,16.73
2019-02-08T19:15:26.305Z,15.90
2019-02-08T19:17:55.319Z,16.07
2019-02-08T19:20:28.745Z,14.57
2019-02-08T19:22:58.175Z,15.57
2019-02-08T19:25:29.679Z,17.03
2019-02-08T19:27:58.578Z,14.83
2019-02-08T19:30:30.373Z,16.57
2019-02-08T19:32:59.521Z,17.47
2019-02-08T19:35:28.473Z,15.67
2019-02-08T19:37:59.299Z,14.33
2019-02-08T19:40:30.176Z,14.70
2019-02-08T19:42:59.049Z,15.87
2019-02-08T19:45:29.690Z,18.67
2019-02-08T19:47:58.795Z,14.30
2019-02-08T19:50:30.246Z,13.90
2019-02-08T19:53:05.671Z,14.93
2019-02-08T19:55:30.759Z,14.23
2019-02-08T19:58:00.037Z,14.13
2019-02-08T20:00:31.670Z,13.57
2019-02-08T20:03:06.097Z,13.93
2019-02-08T20:05:35.222Z,14.63
2019-02-08T20:08:08.557Z,14.83
2019-02-08T20:10:45.910Z,16.27
2019-02-08T20:13:15.097Z,15.90
2019-02-08T20:15:47.532Z,15.60
2019-02-08T20:18:17.958Z,17.00
2019-02-08T20:20:51.006Z,15.47
2019-02-08T20:23:20.031Z,17.10
2019-02-08T20:25:53.537Z,17.37
2019-02-08T20:28:26.322Z,16.37
2019-02-08T20:30:55.273Z,16.10
2019-02-08T20:33:25.523Z,16.20
2019-02-08T20:36:00.765Z,18.63
2019-02-08T20:38:29.643Z,16.90
2019-02-08T20:56:15.939Z,15.70
2019-02-08T20:58:50.398Z,17.53
2019-02-08T21:01:16.257Z,15.53
2019-02-08T21:03:48.958Z,17.37
2019-02-08T21:06:17.831Z,15.83
2019-02-08T21:08:46.718Z,16.67
2019-02-08T21:11:15.568Z,16.47
2019-02-08T21:13:44.421Z,16.97
2019-02-08T21:16:13.426Z,17.73
2019-02-08T21:18:42.291Z,14.93
2019-02-08T21:21:12.490Z,16.00
2019-02-08T21:23:41.398Z,15.47
2019-02-08T21:26:10.358Z,15.07
2019-02-08T21:28:39.204Z,15.20
2019-02-08T21:31:09.348Z,15.57
2019-02-08T21:33:38.241Z,16.70
2019-02-08T21:36:08.422Z,15.77
2019-02-08T21:38:37.332Z,17.60
2019-02-08T21:41:06.192Z,17.10
2019-02-08T21:43:35.072Z,17.00
2019-02-08T21:46:03.987Z,17.67
2019-02-08T21:48:32.844Z,16.03
2019-02-08T21:51:01.672Z,18.13
2019-02-08T21:53:30.612Z,26.40
2019-02-08T21:55:59.462Z,18.97
2019-02-08T21:58:28.296Z,21.77
2019-02-08T22:00:57.184Z,19.23
2019-02-08T22:03:26.215Z,18.50
2019-02-08T22:06:02.448Z,18.57
2019-02-08T22:08:31.302Z,18.33
2019-02-08T22:11:03.178Z,18.37
2019-02-08T22:13:32.079Z,17.80
2019-02-08T22:16:05.836Z,18.57
2019-02-08T22:18:34.698Z,19.43
2019-02-08T22:21:03.714Z,19.37
2019-02-08T22:23:32.565Z,18.03
2019-02-08T22:26:01.410Z,18.07
2019-02-08T22:28:30.288Z,18.30
2019-02-08T22:30:59.105Z,18.00
2019-02-08T22:33:27.962Z,19.27
2019-02-08T22:35:56.869Z,26.93
2019-02-08T22:38:25.714Z,21.03
2019-02-08T22:40:54.594Z,19.57
2019-02-08T22:43:23.529Z,19.07
2019-02-08T22:45:52.405Z,19.53
2019-02-08T22:48:21.228Z,22.00
2019-02-08T22:50:50.144Z,19.47
2019-02-08T22:53:19.011Z,19.07
2019-02-08T22:55:47.887Z,19.37
2019-02-08T22:58:16.795Z,19.97
2019-02-08T23:00:54.453Z,18.10
2019-02-08T23:03:23.361Z,19.27
2019-02-08T23:05:52.229Z,19.40
2019-02-08T23:08:21.078Z,19.00
2019-02-08T23:10:50.004Z,17.97
2019-02-08T23:13:18.834Z,17.83
2019-02-08T23:15:47.685Z,18.10
2019-02-08T23:18:16.679Z,18.37
2019-02-08T23:20:45.524Z,19.20
2019-02-08T23:23:14.430Z,19.10
2019-02-08T23:25:43.375Z,19.23
2019-02-08T23:28:12.188Z,18.93
2019-02-08T23:30:41.166Z,19.80
2019-02-08T23:33:12.596Z,26.83
2019-02-08T23:35:43.117Z,20.63
2019-02-08T23:38:12.221Z,19.57
2019-02-08T23:40:41.046Z,19.03
2019-02-08T23:43:09.897Z,19.73
2019-02-08T23:45:38.802Z,19.17
2019-02-08T23:48:07.654Z,18.27
2019-02-08T23:50:36.498Z,18.70
2019-02-08T23:53:05.921Z,17.77
2019-02-08T23:55:34.771Z,19.27
2019-02-08T23:58:04.719Z,18.50
